ADDS METAR Data

Data at: 2045 UTC 15 Aug 2018

METAR for:KORD (Chicago/O'Hare Intl, IL, US)
Text:KORD 151951Z 12010G16KT 10SM SCT040 BKN044 OVC065 29/19 A2990 RMK AO2 SLP119 T02940189
Temperature: 29.4°C ( 85°F)
Dewpoint: 18.9°C ( 66°F) [RH = 53%]
Pressure (altimeter):29.90 inches Hg (1012.6 mb) [Sea level pressure: 1011.9 mb]
Winds:from the ESE (120 degrees) at 12 MPH (10 knots; 5.1 m/s) gusting to 18 MPH (16 knots; 8.2 m/s)
Visibility:10 or more sm (16+ km)
Ceiling:4400 feet AGL
Clouds: scattered clouds at 4000 feet AGL, broken clouds at 4400 feet AGL, overcast cloud deck at 6500 feet AGL